Time;durP1;ratioP1;P1;durP2;ratioP2;P2;SDS_P1;SDS_P2;PMS_P1;PMS_P2;Temp;Humidity;BMP_temperature;BMP_pressure;BME280_temperature;BME280_humidity;BME280_pressure;Samples;Min_cycle;Max_cycle;Signal;HPM_P1;HPM_P2
2020/12/22 00:00:05;;;;;;;18.67;16.08;;;11.90;99.90;;;;;;5065115;28;20068;-88
2020/12/22 00:02:33;;;;;;;16.17;13.93;;;11.90;99.90;;;;;;5082745;28;20052;-88
2020/12/22 00:04:59;;;;;;;14.80;13.00;;;12.00;99.90;;;;;;5082321;28;20046;-90
2020/12/22 00:07:30;;;;;;;15.18;13.57;;;12.00;99.90;;;;;;5077081;28;20052;-89
2020/12/22 00:09:56;;;;;;;17.40;14.82;;;12.00;99.90;;;;;;5080407;28;20086;-89
2020/12/22 00:12:22;;;;;;;18.38;16.38;;;12.10;99.90;;;;;;5061517;28;20024;-89
2020/12/22 00:14:48;;;;;;;17.02;13.95;;;12.10;99.90;;;;;;5061229;28;20028;-89
2020/12/22 00:17:18;;;;;;;17.70;14.43;;;12.20;99.90;;;;;;5078649;28;20602;-90
2020/12/22 00:19:48;;;;;;;15.55;13.88;;;12.20;99.90;;;;;;5078537;28;20063;-89
2020/12/22 00:22:16;;;;;;;17.00;14.15;;;12.30;99.90;;;;;;5078448;28;20033;-88
2020/12/22 00:24:53;;;;;;;15.75;13.80;;;12.30;99.90;;;;;;5058540;28;20032;-89
2020/12/22 00:27:19;;;;;;;15.10;13.50;;;12.30;99.90;;;;;;5059896;28;20070;-90
2020/12/22 00:29:45;;;;;;;14.95;13.35;;;12.30;99.90;;;;;;5059462;28;20119;-88
2020/12/22 00:32:11;;;;;;;13.88;12.32;;;12.40;99.90;;;;;;5059699;28;20078;-89
2020/12/22 00:34:38;;;;;;;13.82;12.10;;;12.40;99.90;;;;;;5059794;28;20040;-89
2020/12/22 00:37:05;;;;;;;15.30;13.70;;;12.40;99.90;;;;;;5059278;28;20024;-89
2020/12/22 00:39:32;;;;;;;14.43;12.65;;;12.50;99.90;;;;;;5059665;28;20454;-90
2020/12/22 00:41:58;;;;;;;13.32;11.93;;;12.50;99.90;;;;;;5059290;28;20040;-90
2020/12/22 00:44:25;;;;;;;12.55;11.25;;;12.60;99.90;;;;;;5059877;28;20399;-91
2020/12/22 00:46:53;;;;;;;13.45;11.68;;;12.60;99.90;;;;;;5059019;28;20036;-89
2020/12/22 00:49:22;;;;;;;13.15;11.75;;;12.60;99.90;;;;;;5059592;28;20536;-89
2020/12/22 00:51:49;;;;;;;12.35;11.05;;;12.60;99.90;;;;;;5059602;28;20060;-89
2020/12/22 00:54:15;;;;;;;12.93;11.63;;;12.60;99.90;;;;;;5059528;28;20043;-88
2020/12/22 00:56:40;;;;;;;11.70;10.45;;;12.70;99.90;;;;;;5058577;28;20037;-89
2020/12/22 00:59:07;;;;;;;11.43;10.23;;;12.60;99.90;;;;;;5059163;28;20086;-89
2020/12/22 01:01:32;;;;;;;11.43;10.23;;;12.70;99.90;;;;;;5057936;28;20136;-90
2020/12/22 01:03:58;;;;;;;11.77;9.82;;;12.70;99.90;;;;;;5059142;28;20060;-88
2020/12/22 01:06:25;;;;;;;10.80;8.68;;;12.70;99.90;;;;;;5059972;28;20109;-90
2020/12/22 01:08:51;;;;;;;10.07;9.07;;;12.70;99.90;;;;;;5059712;28;20032;-90
2020/12/22 01:11:22;;;;;;;10.25;8.50;;;12.70;99.90;;;;;;5059540;28;20032;-90
2020/12/22 01:13:53;;;;;;;9.77;8.77;;;12.70;99.90;;;;;;5059100;28;20075;-91
2020/12/22 01:16:26;;;;;;;9.38;8.38;;;12.80;99.90;;;;;;5059453;28;20090;-91
2020/12/22 01:18:55;;;;;;;9.15;8.15;;;12.80;99.90;;;;;;5059854;28;20094;-90
2020/12/22 01:21:29;;;;;;;8.38;7.47;;;12.80;99.90;;;;;;5059180;28;20032;-90
2020/12/22 01:23:55;;;;;;;8.05;7.13;;;12.80;99.90;;;;;;5059053;28;20154;-90
2020/12/22 01:26:25;;;;;;;8.18;6.95;;;12.80;99.90;;;;;;5058658;28;20047;-90
2020/12/22 01:28:56;;;;;;;8.02;7.22;;;12.80;99.90;;;;;;5076778;28;20028;-90
2020/12/22 01:31:37;;;;;;;7.35;6.50;;;12.80;99.90;;;;;;5059104;28;20115;-91
2020/12/22 01:34:04;;;;;;;7.82;6.25;;;12.90;99.90;;;;;;5076588;28;20031;-90
2020/12/22 01:36:31;;;;;;;7.50;6.68;;;12.90;99.90;;;;;;5058700;28;20037;-90
2020/12/22 01:38:57;;;;;;;8.40;7.05;;;12.90;99.90;;;;;;5058700;28;20054;-90
2020/12/22 01:41:30;;;;;;;6.38;5.78;;;12.90;99.90;;;;;;5058019;28;20070;-91
2020/12/22 01:44:16;;;;;;;7.25;6.55;;;12.90;99.90;;;;;;5076331;28;20025;-91
2020/12/22 01:46:49;;;;;;;6.53;5.50;;;12.90;99.90;;;;;;5058707;28;20044;-90
2020/12/22 01:49:23;;;;;;;6.63;5.93;;;12.90;99.90;;;;;;5058800;28;20511;-91
2020/12/22 01:51:51;;;;;;;6.13;5.43;;;12.90;99.90;;;;;;5058487;28;20032;-90
2020/12/22 01:54:18;;;;;;;6.00;5.38;;;13.00;99.90;;;;;;5058257;28;20388;-91
2020/12/22 01:56:45;;;;;;;5.28;4.78;;;13.00;99.90;;;;;;5058298;28;20037;-91
2020/12/22 01:59:20;;;;;;;4.65;3.80;;;13.00;99.90;;;;;;5058212;28;20488;-91
2020/12/22 02:01:47;;;;;;;4.55;4.10;;;13.00;99.90;;;;;;5058160;28;20064;-92
2020/12/22 02:04:28;;;;;;;4.15;3.75;;;13.00;99.90;;;;;;5059022;28;20130;-92
2020/12/22 02:06:55;;;;;;;5.35;3.90;;;13.00;99.90;;;;;;5058248;28;20044;-90
2020/12/22 02:09:21;;;;;;;5.82;4.25;;;13.00;99.90;;;;;;5057843;28;20040;-90
2020/12/22 02:11:47;;;;;;;4.20;3.70;;;13.00;99.90;;;;;;5058195;28;20055;-91
2020/12/22 02:14:13;;;;;;;4.30;3.72;;;13.00;99.90;;;;;;5057600;28;20032;-91
2020/12/22 02:16:39;;;;;;;4.38;3.90;;;13.00;99.90;;;;;;5058093;28;20170;-92
2020/12/22 02:19:05;;;;;;;4.25;3.60;;;13.00;99.90;;;;;;5041289;28;20036;-90
2020/12/22 02:21:33;;;;;;;4.40;3.60;;;13.00;99.90;;;;;;5057795;28;20029;-91
2020/12/22 02:24:02;;;;;;;4.13;3.58;;;13.00;99.90;;;;;;5058017;28;20037;-90
2020/12/22 02:26:31;;;;;;;3.78;3.17;;;13.00;99.90;;;;;;5057613;28;20075;-90
2020/12/22 02:28:57;;;;;;;4.07;3.28;;;13.00;99.90;;;;;;5057794;28;20033;-91
2020/12/22 02:31:29;;;;;;;3.72;3.30;;;13.00;99.90;;;;;;5057707;28;20040;-90
2020/12/22 02:33:55;;;;;;;4.18;3.30;;;13.00;99.90;;;;;;5057857;28;20032;-89
2020/12/22 02:36:22;;;;;;;3.78;3.22;;;13.10;99.90;;;;;;5057614;28;20039;-89
2020/12/22 02:38:48;;;;;;;3.58;3.13;;;13.10;99.90;;;;;;5057178;28;20120;-90
2020/12/22 02:41:14;;;;;;;4.00;3.60;;;13.00;99.90;;;;;;5075904;28;20123;-90
2020/12/22 02:43:40;;;;;;;5.35;3.70;;;13.00;99.90;;;;;;5057857;28;20029;-90
2020/12/22 02:46:06;;;;;;;4.35;3.92;;;13.10;99.90;;;;;;5056945;28;20495;-90
2020/12/22 02:48:35;;;;;;;4.25;3.80;;;13.10;99.90;;;;;;5057476;28;20028;-90
2020/12/22 02:51:01;;;;;;;4.68;3.50;;;13.10;99.90;;;;;;5057426;28;20041;-91
2020/12/22 02:53:31;;;;;;;4.63;3.97;;;13.10;99.90;;;;;;5055633;28;20037;-91
2020/12/22 02:55:57;;;;;;;4.22;3.63;;;13.10;99.90;;;;;;5054993;28;20025;-91
2020/12/22 02:58:25;;;;;;;4.93;3.65;;;13.10;99.90;;;;;;5055487;28;20086;-91
2020/12/22 03:00:56;;;;;;;4.93;3.88;;;13.10;99.90;;;;;;5057510;28;20040;-90
2020/12/22 03:03:41;;;;;;;5.85;4.95;;;13.10;99.90;;;;;;5075329;28;20043;-90
2020/12/22 03:06:07;;;;;;;6.68;4.93;;;13.10;99.90;;;;;;5053806;28;20128;-91
2020/12/22 03:08:33;;;;;;;6.40;5.70;;;13.10;99.90;;;;;;5053736;28;20484;-90
2020/12/22 03:10:58;;;;;;;6.05;5.35;;;13.10;99.90;;;;;;5055613;28;20068;-91
2020/12/22 03:13:24;;;;;;;5.85;5.25;;;13.10;99.90;;;;;;5053636;28;20025;-91
2020/12/22 03:15:50;;;;;;;6.88;6.18;;;13.10;99.90;;;;;;5053769;28;20041;-90
2020/12/22 03:18:18;;;;;;;7.00;6.30;;;13.10;99.90;;;;;;5055277;28;20033;-91
2020/12/22 03:20:44;;;;;;;6.68;6.03;;;13.10;99.90;;;;;;5053354;28;20056;-91
2020/12/22 03:23:10;;;;;;;6.70;6.00;;;13.10;99.90;;;;;;5052764;28;20041;-91
2020/12/22 03:25:36;;;;;;;7.15;6.45;;;13.10;99.90;;;;;;5053233;28;20033;-90
2020/12/22 03:28:07;;;;;;;6.85;6.15;;;13.10;99.90;;;;;;5037066;28;20033;-92
2020/12/22 03:30:53;;;;;;;7.32;6.57;;;13.10;99.90;;;;;;5036959;28;20040;-91
2020/12/22 03:33:18;;;;;;;5.40;4.90;;;13.10;99.90;;;;;;5054655;28;20036;-91
2020/12/22 03:35:44;;;;;;;6.18;5.57;;;13.10;99.90;;;;;;5053237;28;20033;-91
2020/12/22 03:38:10;;;;;;;5.95;4.90;;;13.10;99.90;;;;;;5053108;28;20029;-92
2020/12/22 03:40:35;;;;;;;5.65;4.43;;;13.10;99.90;;;;;;5053643;28;20036;-92
2020/12/22 03:43:01;;;;;;;5.22;4.72;;;13.10;99.90;;;;;;5053120;28;20468;-91
2020/12/22 03:45:27;;;;;;;5.95;4.47;;;13.00;99.90;;;;;;5053175;28;20031;-91
2020/12/22 03:47:52;;;;;;;5.38;4.53;;;13.00;99.90;;;;;;5052885;28;20063;-91
2020/12/22 03:50:18;;;;;;;5.32;4.40;;;13.00;99.90;;;;;;5052825;28;20491;-88
2020/12/22 03:52:44;;;;;;;4.80;4.30;;;13.00;99.90;;;;;;5054471;28;20389;-91
2020/12/22 03:55:10;;;;;;;6.38;4.65;;;13.00;99.90;;;;;;5054605;28;20037;-91
2020/12/22 03:57:35;;;;;;;4.82;4.30;;;13.00;99.90;;;;;;5052895;28;20052;-90
2020/12/22 04:00:03;;;;;;;5.65;4.60;;;13.00;99.90;;;;;;5053257;28;20034;-91
2020/12/22 04:02:29;;;;;;;4.80;4.30;;;13.00;99.90;;;;;;5036830;28;20029;-91
2020/12/22 04:04:55;;;;;;;6.93;5.03;;;12.90;99.90;;;;;;5054278;28;20491;-91
2020/12/22 04:07:21;;;;;;;5.65;5.07;;;12.90;99.90;;;;;;5052877;28;20443;-92
2020/12/22 04:09:49;;;;;;;6.43;4.90;;;13.00;99.90;;;;;;5054230;28;20052;-92
2020/12/22 04:12:15;;;;;;;5.35;4.60;;;12.90;99.90;;;;;;5053392;28;20096;-91
2020/12/22 04:14:40;;;;;;;6.90;4.40;;;12.90;99.90;;;;;;5052870;28;20064;-91
2020/12/22 04:17:07;;;;;;;6.18;3.60;;;12.90;99.90;;;;;;5054816;28;20029;-91
2020/12/22 04:19:41;;;;;;;6.25;3.95;;;12.90;99.90;;;;;;5052993;28;20043;-91
2020/12/22 04:22:08;;;;;;;;;;;12.90;99.90;;;;;;5053474;28;20036;-92
2020/12/22 04:24:34;;;;;;;4.85;3.20;;;12.90;99.90;;;;;;5053114;28;19912;-91
2020/12/22 04:27:00;;;;;;;5.07;2.95;;;12.90;99.90;;;;;;5052703;28;20033;-90
2020/12/22 04:29:25;;;;;;;3.70;2.92;;;12.90;99.90;;;;;;5053048;28;20031;-92
2020/12/22 04:31:51;;;;;;;3.95;3.10;;;12.80;99.90;;;;;;5052749;28;20112;-90
2020/12/22 04:34:16;;;;;;;4.20;3.80;;;12.80;99.90;;;;;;5052803;28;20155;-89
2020/12/22 04:36:43;;;;;;;5.45;3.88;;;12.80;99.90;;;;;;5056749;28;20047;-90
2020/12/22 04:39:08;;;;;;;5.32;3.50;;;12.80;99.90;;;;;;5055928;28;20120;-90
2020/12/22 04:41:36;;;;;;;5.60;3.78;;;12.80;99.90;;;;;;5056273;28;20091;-90
2020/12/22 04:44:02;;;;;;;7.50;5.80;;;12.80;99.90;;;;;;5056708;28;20033;-90
2020/12/22 04:46:31;;;;;;;6.00;5.07;;;12.80;99.90;;;;;;5056655;28;20469;-92
2020/12/22 04:48:58;;;;;;;7.68;5.93;;;12.80;99.90;;;;;;5056264;28;20037;-92
2020/12/22 04:51:26;;;;;;;7.80;5.60;;;12.80;99.90;;;;;;5043947;28;20061;-91
2020/12/22 04:53:52;;;;;;;8.82;5.43;;;12.80;99.90;;;;;;5062880;28;20032;-92
2020/12/22 04:56:20;;;;;;;5.90;4.90;;;12.80;99.90;;;;;;5052263;28;20060;-93
2020/12/22 04:58:48;;;;;;;6.18;5.00;;;12.80;99.90;;;;;;5075557;28;20025;-94
2020/12/22 05:01:16;;;;;;;5.05;4.07;;;12.80;99.90;;;;;;5072613;28;20037;-91
2020/12/22 05:03:46;;;;;;;5.70;3.70;;;12.80;99.90;;;;;;5048557;28;20443;-92
2020/12/22 05:06:12;;;;;;;5.10;3.42;;;12.80;99.90;;;;;;5056703;28;20064;-91
2020/12/22 05:08:38;;;;;;;5.20;2.97;;;12.80;99.90;;;;;;5056686;28;20404;-91
2020/12/22 05:11:04;;;;;;;3.03;2.08;;;12.80;99.90;;;;;;5056167;28;20029;-91
2020/12/22 05:13:29;;;;;;;4.32;1.77;;;12.80;99.90;;;;;;5055752;28;20047;-91
2020/12/22 05:15:55;;;;;;;2.92;2.15;;;12.80;99.90;;;;;;5055598;28;20033;-90
2020/12/22 05:18:25;;;;;;;4.78;2.30;;;12.80;99.90;;;;;;5056853;28;20029;-91
2020/12/22 05:20:52;;;;;;;6.40;3.08;;;12.80;99.90;;;;;;5055376;28;20393;-91
2020/12/22 05:23:20;;;;;;;3.88;3.10;;;12.70;99.90;;;;;;5038849;28;20361;-90
2020/12/22 05:25:48;;;;;;;5.60;3.75;;;12.70;99.90;;;;;;5039076;28;20055;-90
2020/12/22 05:28:21;;;;;;;8.05;3.88;;;12.70;99.90;;;;;;5038472;28;20056;-90
2020/12/22 05:30:48;;;;;;;;;;;12.70;99.90;;;;;;5052903;28;20041;-90
2020/12/22 05:33:14;;;;;;;7.38;4.57;;;12.70;99.90;;;;;;5055482;28;19995;-90
2020/12/22 05:35:45;;;;;;;4.68;4.22;;;12.70;99.90;;;;;;5055328;28;20068;-90
2020/12/22 05:38:12;;;;;;;5.60;4.85;;;12.70;99.90;;;;;;5055408;28;20120;-91
2020/12/22 05:40:39;;;;;;;7.63;5.63;;;12.70;99.90;;;;;;5038395;28;20123;-91
2020/12/22 05:43:05;;;;;;;7.93;4.75;;;12.70;99.90;;;;;;5038833;28;20094;-91
2020/12/22 05:45:35;;;;;;;8.18;4.57;;;12.70;99.90;;;;;;5055017;28;20037;-90
2020/12/22 05:48:04;;;;;;;6.15;3.90;;;12.70;99.90;;;;;;5037123;28;20044;-89
2020/12/22 05:50:31;;;;;;;5.90;3.60;;;12.80;99.90;;;;;;5054758;28;20136;-90
2020/12/22 05:53:02;;;;;;;5.20;2.30;;;12.70;99.90;;;;;;5055925;28;20040;-90
2020/12/22 05:55:32;;;;;;;4.75;2.40;;;12.80;99.90;;;;;;5037974;28;20044;-90
2020/12/22 05:58:11;;;;;;;5.22;1.98;;;12.80;99.90;;;;;;5054644;28;20423;-90
2020/12/22 06:00:38;;;;;;;3.72;1.80;;;12.80;99.90;;;;;;5037742;28;20045;-90
2020/12/22 06:03:15;;;;;;;4.32;1.60;;;12.80;99.90;;;;;;5037952;28;20079;-92
2020/12/22 06:05:45;;;;;;;4.45;1.75;;;12.80;99.90;;;;;;5038333;28;20041;-91
2020/12/22 06:08:13;;;;;;;5.32;2.10;;;12.80;99.90;;;;;;5058487;28;20032;-91
2020/12/22 06:10:41;;;;;;;6.22;2.72;;;12.80;99.90;;;;;;5057629;28;20446;-91
2020/12/22 06:13:08;;;;;;;4.65;2.75;;;12.80;99.90;;;;;;5059389;28;20040;-90
2020/12/22 06:15:42;;;;;;;8.52;4.25;;;12.80;99.90;;;;;;5056767;28;20040;-89
2020/12/22 06:18:12;;;;;;;8.52;5.32;;;12.90;99.90;;;;;;5055806;28;20094;-90
2020/12/22 06:20:38;;;;;;;9.07;5.30;;;12.90;99.90;;;;;;5056179;28;20436;-90
2020/12/22 06:23:08;;;;;;;11.32;6.75;;;12.90;99.90;;;;;;5055834;28;20123;-89
2020/12/22 06:25:34;;;;;;;14.55;7.35;;;12.90;99.90;;;;;;5055699;28;20040;-91
2020/12/22 06:28:06;;;;;;;14.27;9.10;;;12.90;99.90;;;;;;5055199;28;20068;-90
2020/12/22 06:30:41;;;;;;;13.63;8.60;;;12.90;99.90;;;;;;5070577;28;20499;-90
2020/12/22 06:33:25;;;;;;;10.30;8.98;;;12.90;99.90;;;;;;5078121;28;20391;-90
2020/12/22 06:36:17;;;;;;;14.18;9.90;;;12.90;99.90;;;;;;5077403;28;20468;-90
2020/12/22 06:39:01;;;;;;;12.38;10.60;;;12.90;99.90;;;;;;5074897;28;20123;-90
2020/12/22 06:41:32;;;;;;;;;;;13.00;99.90;;;;;;5077697;28;20119;-90
2020/12/22 06:44:16;;;;;;;13.85;11.95;;;12.90;99.90;;;;;;5111089;28;20359;-89
2020/12/22 06:46:48;;;;;;;16.60;11.27;;;12.90;99.90;;;;;;5095265;28;20103;-90
2020/12/22 06:49:15;;;;;;;16.88;12.20;;;13.00;99.90;;;;;;5077619;28;20036;-91
2020/12/22 06:51:45;;;;;;;16.35;11.73;;;13.00;99.90;;;;;;5077708;28;20040;-91
2020/12/22 06:54:16;;;;;;;13.52;11.57;;;13.00;99.90;;;;;;5110672;28;20097;-89
2020/12/22 06:56:50;;;;;;;16.73;11.80;;;13.00;99.90;;;;;;5077444;28;20055;-91
2020/12/22 06:59:48;;;;;;;14.38;12.52;;;12.90;99.90;;;;;;5076198;28;20128;-91
2020/12/22 07:02:30;;;;;;;15.25;11.02;;;12.90;99.90;;;;;;5076537;28;20046;-91
2020/12/22 07:04:57;;;;;;;15.57;10.75;;;12.90;99.90;;;;;;5076776;28;20028;-91
2020/12/22 07:07:31;;;;;;;12.82;8.82;;;12.90;99.90;;;;;;5076546;28;20062;-90
2020/12/22 07:10:07;;;;;;;13.30;7.95;;;12.90;99.90;;;;;;5076586;28;20040;-90
2020/12/22 07:12:37;;;;;;;13.38;7.32;;;12.90;99.90;;;;;;5077031;28;20032;-92
2020/12/22 07:15:03;;;;;;;11.65;6.80;;;12.80;99.90;;;;;;5076856;28;20111;-90
2020/12/22 07:17:30;;;;;;;10.38;6.05;;;12.80;99.90;;;;;;5076607;28;20058;-90
2020/12/22 07:19:57;;;;;;;11.82;4.95;;;12.90;99.90;;;;;;5094387;28;20028;-92
2020/12/22 07:22:23;;;;;;;10.48;4.63;;;12.90;99.90;;;;;;5076812;28;20032;-89
2020/12/22 07:24:52;;;;;;;12.55;4.60;;;12.80;99.90;;;;;;5076601;28;20032;-90
2020/12/22 07:27:17;;;;;;;7.57;3.13;;;12.90;99.90;;;;;;5065611;28;20025;-91
2020/12/22 07:29:43;;;;;;;5.80;2.63;;;12.90;99.90;;;;;;5073079;28;20494;-91
2020/12/22 07:32:10;;;;;;;10.25;2.53;;;12.80;99.90;;;;;;5093958;28;20058;-90
2020/12/22 07:34:36;;;;;;;8.65;2.10;;;12.80;99.90;;;;;;5094387;28;20024;-91
2020/12/22 07:37:12;;;;;;;9.43;2.28;;;12.80;99.90;;;;;;5110539;28;20039;-91
2020/12/22 07:39:40;;;;;;;6.32;1.88;;;12.80;99.90;;;;;;5059723;28;20495;-91
2020/12/22 07:42:24;;;;;;;7.28;1.70;;;12.80;99.90;;;;;;5076785;28;20031;-89
2020/12/22 07:44:49;;;;;;;7.10;1.88;;;12.80;99.90;;;;;;5076837;28;20024;-92
2020/12/22 07:47:15;;;;;;;5.60;1.70;;;12.70;99.90;;;;;;5076499;28;20379;-91
2020/12/22 07:49:50;;;;;;;8.65;1.40;;;12.70;99.90;;;;;;5076205;28;20032;-91
2020/12/22 07:52:16;;;;;;;4.38;0.88;;;12.70;99.90;;;;;;5076163;28;20035;-91
2020/12/22 07:54:42;;;;;;;5.25;1.13;;;12.70;99.90;;;;;;5094640;28;20036;-91
2020/12/22 07:57:11;;;;;;;4.20;1.02;;;12.70;99.90;;;;;;5076284;28;20047;-91
2020/12/22 07:59:37;;;;;;;6.20;0.90;;;12.70;99.90;;;;;;5076501;28;20063;-91
2020/12/22 08:02:02;;;;;;;9.80;1.40;;;12.70;99.90;;;;;;5076247;28;20112;-92
2020/12/22 08:04:34;;;;;;;8.25;1.40;;;12.70;99.90;;;;;;5094423;28;20456;-94
2020/12/22 08:07:06;;;;;;;5.47;1.30;;;12.70;99.90;;;;;;5076135;28;20056;-91
2020/12/22 08:09:35;;;;;;;5.38;0.90;;;12.70;99.90;;;;;;5095409;28;20025;-90
2020/12/22 08:12:11;;;;;;;5.63;1.17;;;12.70;99.90;;;;;;5063638;28;20070;-90
2020/12/22 08:14:42;;;;;;;8.75;1.45;;;12.70;99.90;;;;;;5114451;28;20086;-91
2020/12/22 08:17:18;;;;;;;8.80;1.83;;;12.60;99.90;;;;;;5080256;28;20043;-90
2020/12/22 08:19:46;;;;;;;8.07;1.63;;;12.70;99.90;;;;;;5079992;28;20471;-92
2020/12/22 08:22:15;;;;;;;10.60;1.58;;;12.60;99.90;;;;;;5079668;28;20431;-92
2020/12/22 08:24:42;;;;;;;9.15;1.90;;;12.60;99.90;;;;;;5098680;28;20043;-91
2020/12/22 08:27:08;;;;;;;8.73;1.63;;;12.60;99.90;;;;;;5063593;28;20067;-93
2020/12/22 08:29:46;;;;;;;9.88;1.77;;;12.50;99.90;;;;;;5046959;28;20395;-91
2020/12/22 08:32:23;;;;;;;9.38;2.13;;;12.30;99.90;;;;;;5099729;28;20039;-90
2020/12/22 08:34:53;;;;;;;8.88;1.75;;;12.20;99.90;;;;;;5098213;28;20468;-91
2020/12/22 08:37:28;;;;;;;9.82;1.95;;;12.20;99.90;;;;;;5082802;28;20051;-90
2020/12/22 08:40:07;;;;;;;;;;;;;;;;;;;;;
2020/12/22 08:42:35;;;;;;;12.27;1.75;;;12.10;99.90;;;;;;5106306;28;20111;-91
2020/12/22 08:45:03;;;;;;;9.18;2.28;;;12.20;99.90;;;;;;5102407;28;20036;-89
2020/12/22 08:47:34;;;;;;;8.70;1.73;;;12.30;99.90;;;;;;5082506;28;20028;-91
2020/12/22 08:50:09;;;;;;;13.48;2.00;;;12.40;99.90;;;;;;5077409;28;20036;-91
2020/12/22 08:52:35;;;;;;;8.07;1.60;;;12.50;99.90;;;;;;5083891;28;20039;-91
2020/12/22 08:55:04;;;;;;;9.77;1.92;;;12.50;99.90;;;;;;5098854;28;20032;-90
2020/12/22 08:57:30;;;;;;;14.52;2.15;;;12.40;99.90;;;;;;5081533;28;20044;-90
2020/12/22 08:59:56;;;;;;;9.05;1.98;;;12.20;99.90;;;;;;5099343;28;20171;-90
2020/12/22 09:02:27;;;;;;;11.00;2.15;;;12.20;99.90;;;;;;5064230;28;20060;-90
2020/12/22 09:04:53;;;;;;;9.48;1.80;;;12.10;99.90;;;;;;5080046;28;20036;-90
2020/12/22 09:07:22;;;;;;;14.02;2.92;;;12.10;99.90;;;;;;5098612;28;20500;-91
2020/12/22 09:09:48;;;;;;;14.43;2.58;;;12.00;99.90;;;;;;5079994;28;20465;-90
2020/12/22 09:12:16;;;;;;;7.07;1.80;;;12.10;99.90;;;;;;5062937;28;20038;-91
2020/12/22 09:14:44;;;;;;;14.35;2.97;;;12.00;99.90;;;;;;5080940;28;20032;-89
2020/12/22 09:17:13;;;;;;;12.90;2.40;;;12.10;99.90;;;;;;5080753;28;20131;-90
2020/12/22 09:19:47;;;;;;;9.88;1.88;;;12.10;99.90;;;;;;5097777;28;20468;-90
2020/12/22 09:22:20;;;;;;;14.57;3.15;;;12.20;99.90;;;;;;5079261;28;20055;-91
2020/12/22 09:24:59;;;;;;;11.88;2.55;;;12.20;99.90;;;;;;5079822;28;20036;-89
2020/12/22 09:27:41;;;;;;;11.13;1.90;;;12.20;99.90;;;;;;5097660;28;20051;-89
2020/12/22 09:30:15;;;;;;;15.23;2.42;;;12.30;99.90;;;;;;5080086;28;20051;-90
2020/12/22 09:32:50;;;;;;;13.48;2.17;;;12.30;99.90;;;;;;5091033;28;20112;-91
2020/12/22 09:35:18;;;;;;;16.92;2.83;;;12.30;99.90;;;;;;5089077;28;20056;-91
2020/12/22 09:37:46;;;;;;;15.32;2.70;;;12.40;99.90;;;;;;5097492;28;20032;-90
2020/12/22 09:40:14;;;;;;;12.70;2.72;;;12.40;99.90;;;;;;5119720;28;20043;-91
2020/12/22 09:42:44;;;;;;;13.85;2.67;;;12.40;99.90;;;;;;5098333;28;20043;-92
2020/12/22 09:45:13;;;;;;;10.32;2.30;;;12.40;99.90;;;;;;5075940;28;20041;-91
2020/12/22 09:47:41;;;;;;;12.38;1.98;;;12.40;99.90;;;;;;5056486;28;20039;-91
2020/12/22 09:50:11;;;;;;;11.02;2.13;;;12.40;99.90;;;;;;5059018;28;20464;-91
2020/12/22 09:52:54;;;;;;;10.93;2.45;;;12.40;99.90;;;;;;5060049;28;20066;-91
2020/12/22 09:55:29;;;;;;;13.40;2.25;;;12.50;99.90;;;;;;5058171;28;20054;-94
2020/12/22 09:58:03;;;;;;;8.55;2.20;;;12.60;99.90;;;;;;5055694;28;20115;-91
2020/12/22 10:00:29;;;;;;;11.95;2.20;;;12.60;99.90;;;;;;5073950;28;20029;-89
2020/12/22 10:03:09;;;;;;;;;;;;;;;;;;;;;
2020/12/22 10:05:38;;;;;;;13.80;2.28;;;12.60;99.90;;;;;;5077474;28;20024;-92
2020/12/22 10:08:25;;;;;;;8.85;2.33;;;12.60;99.90;;;;;;5068717;28;20443;-91
2020/12/22 10:10:55;;;;;;;9.57;2.00;;;12.60;99.90;;;;;;5053412;28;20047;-91
2020/12/22 10:13:29;;;;;;;13.95;2.97;;;12.70;99.90;;;;;;5071855;28;20476;-92
2020/12/22 10:16:00;;;;;;;14.50;2.90;;;12.60;99.90;;;;;;5066705;28;20025;-90
2020/12/22 10:18:27;;;;;;;11.48;3.08;;;12.60;99.90;;;;;;5059157;28;20044;-91
2020/12/22 10:21:00;;;;;;;13.43;3.00;;;12.60;99.90;;;;;;5042189;28;20049;-90
2020/12/22 10:23:32;;;;;;;10.65;2.60;;;12.50;99.90;;;;;;5075340;28;20119;-92
2020/12/22 10:26:06;;;;;;;10.25;2.88;;;12.40;99.90;;;;;;5070015;28;20086;-90
2020/12/22 10:28:43;;;;;;;8.40;2.72;;;12.30;99.90;;;;;;5057633;28;20028;-90
2020/12/22 10:31:19;;;;;;;10.90;2.45;;;12.20;99.90;;;;;;5057662;28;20033;-92
2020/12/22 10:33:46;;;;;;;12.48;3.13;;;12.20;99.90;;;;;;5057594;28;20178;-89
2020/12/22 10:39:07;;;;;;;12.88;2.83;;;12.20;99.90;;;;;;5067296;28;20036;-92
2020/12/22 10:41:40;;;;;;;8.13;2.67;;;12.10;99.90;;;;;;5075480;28;20024;-91
2020/12/22 10:44:09;;;;;;;;;;;12.10;99.90;;;;;;5075732;28;20044;-92
2020/12/22 10:46:38;;;;;;;10.73;3.25;;;12.10;99.90;;;;;;5040796;28;19942;-90
2020/12/22 10:49:09;;;;;;;11.57;3.60;;;12.20;99.90;;;;;;5057250;28;20037;-93
2020/12/22 10:51:44;;;;;;;11.30;3.80;;;12.20;99.90;;;;;;5056567;28;20041;-92
2020/12/22 10:54:29;;;;;;;;;;;;;;;;;;;;;
2020/12/22 10:56:58;;;;;;;11.00;3.88;;;12.30;99.90;;;;;;5074921;28;20028;-92
2020/12/22 10:59:23;;;;;;;9.68;3.72;;;12.40;99.90;;;;;;5070848;28;20044;-92
2020/12/22 11:01:52;;;;;;;17.10;5.20;;;12.40;99.90;;;;;;5056794;28;20119;-91
2020/12/22 11:04:20;;;;;;;11.63;4.13;;;12.40;99.90;;;;;;5057486;28;20083;-91
2020/12/22 11:10:09;;;;;;;16.08;6.75;;;12.50;99.90;;;;;;5034389;28;20044;-93
2020/12/22 11:12:46;;;;;;;13.10;6.05;;;12.40;99.90;;;;;;5018014;28;20492;-92
2020/12/22 11:15:54;;;;;;;14.73;5.88;;;12.30;99.90;;;;;;5022654;28;20041;-91
2020/12/22 11:18:49;;;;;;;13.45;5.65;;;12.30;99.90;;;;;;5033882;28;20063;-92
2020/12/22 11:21:44;;;;;;;13.45;5.40;;;12.20;99.90;;;;;;5053635;28;20029;-92
2020/12/22 11:24:16;;;;;;;8.02;3.97;;;12.20;99.90;;;;;;5040982;28;20055;-93
2020/12/22 11:27:27;;;;;;;8.40;3.03;;;12.20;99.90;;;;;;5053246;28;20033;-93
2020/12/22 11:29:58;;;;;;;4.25;1.58;;;12.20;99.90;;;;;;5033420;28;20037;-90
2020/12/22 11:32:26;;;;;;;5.57;1.85;;;12.00;99.90;;;;;;5050586;28;20108;-93
2020/12/22 11:35:30;;;;;;;;;;;;;;;;;;;;;
2020/12/22 11:38:16;;;;;;;4.28;1.42;;;12.00;99.90;;;;;;5036685;28;20040;-91
2020/12/22 11:40:57;;;;;;;4.13;1.10;;;11.90;99.90;;;;;;5054398;28;20029;-91
2020/12/22 11:43:32;;;;;;;5.78;1.60;;;11.90;99.90;;;;;;5054798;28;20128;-92
2020/12/22 11:46:13;;;;;;;4.82;1.33;;;11.90;99.90;;;;;;5056610;28;20033;-91
2020/12/22 11:48:48;;;;;;;4.13;1.30;;;11.90;99.90;;;;;;5057125;28;20068;-92
2020/12/22 11:51:42;;;;;;;4.35;1.13;;;11.90;99.90;;;;;;5057974;28;20064;-91
2020/12/22 11:54:19;;;;;;;2.65;1.30;;;11.90;99.90;;;;;;5079527;28;20033;-91
2020/12/22 11:56:47;;;;;;;2.17;1.02;;;11.90;99.90;;;;;;5056935;28;20116;-91
2020/12/22 11:59:43;;;;;;;2.67;0.98;;;11.80;99.90;;;;;;5057548;28;20096;-91
2020/12/22 12:02:18;;;;;;;2.95;1.20;;;11.70;99.90;;;;;;5057992;28;20044;-91
2020/12/22 12:04:44;;;;;;;3.22;0.90;;;11.60;99.90;;;;;;5040243;28;20044;-90
2020/12/22 12:07:12;;;;;;;2.95;0.90;;;11.60;99.90;;;;;;5071853;28;20082;-91
2020/12/22 12:09:58;;;;;;;1.95;0.80;;;11.50;99.90;;;;;;5075879;28;20536;-89
2020/12/22 12:12:24;;;;;;;3.58;1.70;;;11.50;99.90;;;;;;5050208;28;20066;-91
2020/12/22 12:15:01;;;;;;;3.88;1.67;;;11.50;99.90;;;;;;5069821;28;20036;-91
2020/12/22 12:17:27;;;;;;;3.35;1.92;;;11.40;99.90;;;;;;5043492;28;20087;-90
2020/12/22 12:19:53;;;;;;;3.05;1.50;;;11.40;99.90;;;;;;5060016;28;20028;-90
2020/12/22 12:22:19;;;;;;;3.60;1.80;;;11.50;99.90;;;;;;5061773;28;20497;-91
2020/12/22 12:24:44;;;;;;;2.70;1.48;;;11.40;99.90;;;;;;5053101;28;20032;-90
2020/12/22 12:27:11;;;;;;;3.83;1.50;;;11.40;99.90;;;;;;5060272;28;20052;-90
2020/12/22 12:29:40;;;;;;;3.03;1.38;;;11.40;99.90;;;;;;5077539;28;20039;-89
2020/12/22 12:32:07;;;;;;;3.60;1.70;;;11.40;99.90;;;;;;5053455;28;20036;-91
2020/12/22 12:34:41;;;;;;;2.30;1.50;;;11.40;99.90;;;;;;5049557;28;20376;-91
2020/12/22 12:37:07;;;;;;;3.72;1.52;;;11.40;99.90;;;;;;5044103;28;20397;-91
2020/12/22 12:39:40;;;;;;;4.38;2.28;;;11.40;99.90;;;;;;5071703;28;20037;-91
2020/12/22 12:42:06;;;;;;;4.68;1.95;;;11.40;99.90;;;;;;5076205;28;20037;-91
2020/12/22 12:44:35;;;;;;;7.05;2.38;;;11.40;99.90;;;;;;5076440;28;20041;-92
2020/12/22 12:47:00;;;;;;;6.28;2.55;;;11.30;99.90;;;;;;5060181;28;20104;-92
2020/12/22 12:49:29;;;;;;;4.43;2.28;;;11.40;99.90;;;;;;5070272;28;20395;-93
2020/12/22 12:51:58;;;;;;;4.07;2.10;;;11.40;99.90;;;;;;5075189;28;20041;-92
2020/12/22 12:54:27;;;;;;;4.28;2.08;;;11.40;99.90;;;;;;5076917;28;20048;-91
2020/12/22 12:56:58;;;;;;;4.13;2.22;;;11.50;99.90;;;;;;5060633;28;20037;-94
2020/12/22 12:59:24;;;;;;;5.15;2.50;;;11.50;99.90;;;;;;5055631;28;20036;-92
2020/12/22 13:01:50;;;;;;;6.68;2.65;;;11.50;99.90;;;;;;5059780;28;20033;-92
2020/12/22 13:04:15;;;;;;;5.07;2.60;;;11.60;99.90;;;;;;5059836;28;20139;-92
2020/12/22 13:06:51;;;;;;;8.63;2.80;;;11.60;99.90;;;;;;5055572;28;20079;-90
2020/12/22 13:09:20;;;;;;;5.28;2.70;;;11.70;99.90;;;;;;5079496;28;20056;-92